Terminal Aerodrome Forecast
Issued by NWS

Home | Current Version | Previous Version | Text Only | Print | Product List | Glossary On
Versions: 1 2 3 4 5 6 7 8 9 10 11 12 13 14 15 16 17 18 19 20
000
FTUS44 KCRP 262000 AAA
TAFLRD
TAF AMD
KLRD 262036Z 2621/2718 35015G25KT P6SM VCTS BKN060CB BKN200
      TEMPO 2621/2623 32018G30KT 5SM -TSRA BR BKN050CB
     FM270100 35010KT P6SM SCT050 BKN250
     FM270700 32006KT P6SM SCT250=

USA.gov is the U.S. government's official web portal to all federal, state and local government web resources and services.